Finley, Oklahoma
Current Conditions -  °F | °C
As of 3:55 PM on Thursday 27 Nov 2014 (Local Time) from KHHW Reporting Station
Clear Clear  
Wind Chill: 56°   Ceiling: Unl
Heat Index: 56°   Visibility: 10mi
Dew Point: 16°   Wind: 6mph
Humidity: 20%   Direction: 110°ESE
Pressure: 30.42"   Gusts: NA
Location:  34.33°N, 95.5°W
Report Text: KHHW 272155Z AUTO 11005KT 10SM CLR 14/M09 A3042 RMK AO2 T01361091
Loading
Personal Weather Stations






























Interactive Weather Map New forecast layout! Learn more

10-Day Weather Forecast

Advertisements
Track Severe Weather on mobile